Time;durP1;ratioP1;P1;durP2;ratioP2;P2;SDS_P1;SDS_P2;PMS_P1;PMS_P2;Temp;Humidity;BMP_temperature;BMP_pressure;BME280_temperature;BME280_humidity;BME280_pressure;Samples;Min_cycle;Max_cycle;Signal;HPM_P1;HPM_P2
2021/12/24 00:01:45;;;;;;;122.43;75.20;;;;;;;;;;6116277;23;20367;-84
2021/12/24 00:04:13;;;;;;;120.68;75.13;;;;;;;;;;6115912;23;20726;-84
2021/12/24 00:06:40;;;;;;;116.57;74.53;;;;;;;;;;6116053;23;20398;-84
2021/12/24 00:09:07;;;;;;;120.25;74.05;;;;;;;;;;6116143;23;20371;-84
2021/12/24 00:11:35;;;;;;;124.37;75.83;;;;;;;;;;6115592;23;20381;-84
2021/12/24 00:14:04;;;;;;;122.97;76.03;;;;;;;;;;6115420;23;20413;-84
2021/12/24 00:16:39;;;;;;;120.60;74.88;;;;;;;;;;6115662;23;20402;-84
2021/12/24 00:19:16;;;;;;;124.20;76.65;;;;;;;;;;6115858;23;20373;-84
2021/12/24 00:35:32;;;;;;;116.63;72.45;;;;;;;;;;6065007;23;20374;-83
2021/12/24 00:38:03;;;;;;;117.93;73.15;;;;;;;;;;6114683;23;20923;-84
2021/12/24 00:40:32;;;;;;;115.22;73.30;;;;;;;;;;6115591;23;20375;-84
2021/12/24 00:42:59;;;;;;;111.15;71.32;;;;;;;;;;6115858;23;20900;-84
2021/12/24 00:45:28;;;;;;;120.78;73.05;;;;;;;;;;6115663;23;20414;-84
2021/12/24 00:47:56;;;;;;;112.72;72.38;;;;;;;;;;6116500;23;20375;-84
2021/12/24 00:50:30;;;;;;;113.82;72.10;;;;;;;;;;6116236;23;20430;-83
2021/12/24 00:53:02;;;;;;;114.85;72.88;;;;;;;;;;6116144;23;20373;-84
2021/12/24 00:55:31;;;;;;;115.32;71.03;;;;;;;;;;6115432;23;20883;-84
2021/12/24 00:58:00;;;;;;;113.00;70.68;;;;;;;;;;6115805;23;20367;-84
2021/12/24 01:00:31;;;;;;;112.57;71.20;;;;;;;;;;6113005;23;20414;-84
2021/12/24 01:03:00;;;;;;;111.50;70.97;;;;;;;;;;6114922;23;20364;-84
2021/12/24 01:05:28;;;;;;;113.80;72.38;;;;;;;;;;6114529;23;20435;-84
2021/12/24 01:07:56;;;;;;;112.13;71.03;;;;;;;;;;6114932;23;20513;-84
2021/12/24 01:10:27;;;;;;;112.20;70.53;;;;;;;;;;6114355;23;20367;-84
2021/12/24 01:12:54;;;;;;;105.60;68.57;;;;;;;;;;6114917;23;20370;-85
2021/12/24 01:15:21;;;;;;;105.75;68.03;;;;;;;;;;6115168;23;20366;-85
2021/12/24 01:17:55;;;;;;;99.60;65.90;;;;;;;;;;6116264;23;20378;-83
2021/12/24 01:20:27;;;;;;;97.53;65.23;;;;;;;;;;6116126;23;20477;-84
2021/12/24 01:23:26;;;;;;;100.00;67.00;;;;;;;;;;6116251;23;20757;-84
2021/12/24 01:25:57;;;;;;;100.37;64.87;;;;;;;;;;6114731;23;20383;-84
2021/12/24 01:39:19;;;;;;;102.22;64.80;;;;;;;;;;6115589;23;20374;-84
2021/12/24 01:44:32;;;;;;;103.85;64.57;;;;;;;;;;6115283;23;20370;-85
2021/12/24 01:47:02;;;;;;;103.25;64.05;;;;;;;;;;6115702;23;20390;-84
2021/12/24 01:49:29;;;;;;;99.35;64.22;;;;;;;;;;6115598;23;20844;-84
2021/12/24 01:51:57;;;;;;;96.03;63.53;;;;;;;;;;6117774;23;20375;-84
2021/12/24 01:54:24;;;;;;;98.20;61.75;;;;;;;;;;6117414;23;20905;-84
2021/12/24 01:56:52;;;;;;;93.30;58.90;;;;;;;;;;6117224;23;20970;-84
2021/12/24 01:59:19;;;;;;;91.05;59.95;;;;;;;;;;6117939;23;20363;-84
2021/12/24 02:01:46;;;;;;;90.70;59.03;;;;;;;;;;6117734;23;20362;-84
2021/12/24 02:04:14;;;;;;;90.72;59.47;;;;;;;;;;6116752;23;20367;-84
2021/12/24 02:06:42;;;;;;;92.38;59.75;;;;;;;;;;6117520;23;20784;-84
2021/12/24 02:09:10;;;;;;;91.25;58.30;;;;;;;;;;6117591;23;20779;-84
2021/12/24 02:11:38;;;;;;;91.75;58.33;;;;;;;;;;6117286;23;20836;-84
2021/12/24 02:14:10;;;;;;;86.70;56.92;;;;;;;;;;6117235;23;20446;-84
2021/12/24 02:16:51;;;;;;;89.35;57.05;;;;;;;;;;6117725;23;20382;-85
2021/12/24 02:30:31;;;;;;;77.20;51.50;;;;;;;;;;6117711;23;20383;-85
2021/12/24 02:32:58;;;;;;;77.63;51.10;;;;;;;;;;6118129;23;20902;-84
2021/12/24 02:35:25;;;;;;;75.32;50.45;;;;;;;;;;6117240;23;20903;-85
2021/12/24 02:37:53;;;;;;;80.88;51.40;;;;;;;;;;6118039;23;20375;-84
2021/12/24 02:40:21;;;;;;;77.05;51.65;;;;;;;;;;6117856;23;20914;-84
2021/12/24 02:42:52;;;;;;;74.10;50.70;;;;;;;;;;6118035;23;20522;-84
2021/12/24 02:45:19;;;;;;;80.28;52.38;;;;;;;;;;6116907;23;20673;-84
2021/12/24 02:48:09;;;;;;;80.75;51.83;;;;;;;;;;6117518;23;20390;-84
2021/12/24 02:56:10;;;;;;;78.45;50.30;;;;;;;;;;6116771;23;20911;-84
2021/12/24 02:58:39;;;;;;;81.83;50.73;;;;;;;;;;6118109;23;20839;-84
2021/12/24 03:01:07;;;;;;;76.07;49.92;;;;;;;;;;6118211;23;20390;-85
2021/12/24 03:03:37;;;;;;;77.78;50.17;;;;;;;;;;6118064;23;20406;-83
2021/12/24 03:06:04;;;;;;;76.07;48.88;;;;;;;;;;6118707;23;20777;-84
2021/12/24 03:08:33;;;;;;;72.88;49.10;;;;;;;;;;6117717;23;20375;-84
2021/12/24 03:10:59;;;;;;;76.43;49.75;;;;;;;;;;6119143;23;20366;-85
2021/12/24 03:13:27;;;;;;;71.43;48.10;;;;;;;;;;6118159;23;20363;-84
2021/12/24 03:15:56;;;;;;;71.47;48.72;;;;;;;;;;6118686;23;20911;-84
2021/12/24 03:18:27;;;;;;;70.38;47.28;;;;;;;;;;6118672;23;20724;-85
2021/12/24 03:21:01;;;;;;;67.25;45.90;;;;;;;;;;6125929;23;20740;-84
2021/12/24 03:23:39;;;;;;;72.88;47.45;;;;;;;;;;6141360;23;20432;-84
2021/12/24 03:26:10;;;;;;;71.90;48.15;;;;;;;;;;6142534;23;20402;-84
2021/12/24 03:28:37;;;;;;;71.30;48.13;;;;;;;;;;6143006;23;20598;-84
2021/12/24 03:31:05;;;;;;;68.13;46.47;;;;;;;;;;6132291;23;20721;-83
2021/12/24 03:33:33;;;;;;;70.15;47.08;;;;;;;;;;6133502;23;20378;-84
2021/12/24 03:36:00;;;;;;;71.35;46.50;;;;;;;;;;6135911;23;20427;-84
2021/12/24 03:38:27;;;;;;;66.77;43.47;;;;;;;;;;6136326;23;20387;-84
2021/12/24 03:40:55;;;;;;;63.72;43.38;;;;;;;;;;6134597;23;20414;-84
2021/12/24 03:43:23;;;;;;;69.00;45.25;;;;;;;;;;6124741;23;21141;-84
2021/12/24 03:45:59;;;;;;;65.20;42.80;;;;;;;;;;6117540;23;20426;-84
2021/12/24 03:48:38;;;;;;;63.77;42.97;;;;;;;;;;6116416;23;20371;-85
2021/12/24 03:51:21;;;;;;;64.20;42.90;;;;;;;;;;6117878;23;20442;-83
2021/12/24 03:56:35;;;;;;;63.63;40.05;;;;;;;;;;6116591;23;20653;-83
2021/12/24 03:59:05;;;;;;;58.95;38.40;;;;;;;;;;6116824;23;20414;-83
2021/12/24 04:01:32;;;;;;;57.35;38.00;;;;;;;;;;6116673;23;20373;-83
2021/12/24 04:03:59;;;;;;;58.00;37.83;;;;;;;;;;6116906;23;20697;-83
2021/12/24 04:06:25;;;;;;;58.60;38.50;;;;;;;;;;6117042;23;20915;-84
2021/12/24 04:08:52;;;;;;;59.78;38.22;;;;;;;;;;6116724;23;20366;-83
2021/12/24 04:11:19;;;;;;;56.72;37.63;;;;;;;;;;6116656;23;20371;-83
2021/12/24 04:13:46;;;;;;;60.17;38.92;;;;;;;;;;6116978;23;20389;-83
2021/12/24 04:16:15;;;;;;;58.20;37.55;;;;;;;;;;6117054;23;20734;-83
2021/12/24 04:18:49;;;;;;;55.47;37.28;;;;;;;;;;6116924;23;20875;-84
2021/12/24 04:26:45;;;;;;;56.00;37.10;;;;;;;;;;6116566;23;20542;-84
2021/12/24 04:29:11;;;;;;;55.67;36.95;;;;;;;;;;6116734;23;20371;-83
2021/12/24 04:31:43;;;;;;;52.17;35.07;;;;;;;;;;6116618;23;20378;-83
2021/12/24 04:34:13;;;;;;;54.25;35.78;;;;;;;;;;6117178;23;20861;-83
2021/12/24 04:37:04;;;;;;;54.53;36.65;;;;;;;;;;6116722;23;20371;-84
2021/12/24 04:39:46;;;;;;;59.40;36.70;;;;;;;;;;6115792;23;20450;-84
2021/12/24 05:01:45;;;;;;;52.33;34.60;;;;;;;;;;6117178;23;20509;-84
2021/12/24 05:04:14;;;;;;;51.22;33.35;;;;;;;;;;6116508;23;20378;-84
2021/12/24 05:06:50;;;;;;;50.73;33.00;;;;;;;;;;6116230;23;20439;-84
2021/12/24 05:09:22;;;;;;;47.65;31.88;;;;;;;;;;6115485;23;20362;-84
2021/12/24 05:11:49;;;;;;;47.50;32.22;;;;;;;;;;6116367;23;20922;-84
2021/12/24 05:14:16;;;;;;;56.93;40.00;;;;;;;;;;6115318;23;21157;-84
2021/12/24 05:16:47;;;;;;;50.22;33.63;;;;;;;;;;6116201;23;20371;-84
2021/12/24 05:21:56;;;;;;;49.80;33.07;;;;;;;;;;6066209;23;20378;-84
2021/12/24 05:24:26;;;;;;;48.55;32.97;;;;;;;;;;6115591;23;20410;-84
2021/12/24 05:27:01;;;;;;;49.20;32.80;;;;;;;;;;6115849;23;20457;-83
2021/12/24 05:29:29;;;;;;;49.92;33.55;;;;;;;;;;6115280;23;20433;-83
2021/12/24 05:31:56;;;;;;;50.75;33.13;;;;;;;;;;6118392;23;20371;-84
2021/12/24 05:34:24;;;;;;;50.22;33.17;;;;;;;;;;6116081;23;20378;-84
2021/12/24 05:36:52;;;;;;;50.20;33.57;;;;;;;;;;6115915;23;20405;-85
2021/12/24 05:39:22;;;;;;;50.25;33.58;;;;;;;;;;6115343;23;20368;-84
2021/12/24 05:41:49;;;;;;;48.15;32.55;;;;;;;;;;6116317;23;20375;-84
2021/12/24 05:44:17;;;;;;;51.83;33.42;;;;;;;;;;6115759;23;20422;-84
2021/12/24 05:46:45;;;;;;;55.25;35.80;;;;;;;;;;6116456;23;20379;-84
2021/12/24 05:49:12;;;;;;;57.60;38.65;;;;;;;;;;6115966;23;20375;-84
2021/12/24 05:51:41;;;;;;;63.90;40.83;;;;;;;;;;6116400;23;20367;-84
2021/12/24 05:54:08;;;;;;;61.07;41.10;;;;;;;;;;6116251;23;20442;-84
2021/12/24 05:56:35;;;;;;;59.47;41.22;;;;;;;;;;6115815;23;20363;-83
2021/12/24 05:59:02;;;;;;;62.30;41.22;;;;;;;;;;6116471;23;20441;-82
2021/12/24 06:01:29;;;;;;;61.50;40.63;;;;;;;;;;6115571;23;20370;-83
2021/12/24 06:03:55;;;;;;;57.83;38.53;;;;;;;;;;6116807;23;20363;-83
2021/12/24 06:06:22;;;;;;;57.85;37.53;;;;;;;;;;6115221;23;20684;-83
2021/12/24 06:08:51;;;;;;;55.90;36.63;;;;;;;;;;6116142;23;20741;-83
2021/12/24 06:11:20;;;;;;;53.38;36.13;;;;;;;;;;6115839;23;20393;-83
2021/12/24 06:13:51;;;;;;;52.47;34.05;;;;;;;;;;6116634;23;20633;-82
2021/12/24 06:16:19;;;;;;;50.15;33.08;;;;;;;;;;6115294;23;20371;-83
2021/12/24 06:18:45;;;;;;;50.80;33.17;;;;;;;;;;6115963;23;20367;-83
2021/12/24 06:21:12;;;;;;;49.50;33.15;;;;;;;;;;6115892;23;20387;-83
2021/12/24 06:23:40;;;;;;;50.05;34.55;;;;;;;;;;6115535;23;20374;-83
2021/12/24 06:26:09;;;;;;;52.88;34.45;;;;;;;;;;6116630;23;20483;-83
2021/12/24 06:28:37;;;;;;;50.80;33.60;;;;;;;;;;6115704;23;20497;-83
2021/12/24 06:31:04;;;;;;;46.97;30.75;;;;;;;;;;6116682;23;20367;-83
2021/12/24 06:33:31;;;;;;;48.17;31.23;;;;;;;;;;6115950;23;20434;-82
2021/12/24 06:35:59;;;;;;;46.37;30.37;;;;;;;;;;6116312;23;20371;-84
2021/12/24 06:38:26;;;;;;;45.17;29.80;;;;;;;;;;6117705;23;20367;-83
2021/12/24 06:40:53;;;;;;;45.00;28.92;;;;;;;;;;6117858;23;20422;-83
2021/12/24 06:43:22;;;;;;;41.92;29.13;;;;;;;;;;6117046;23;20390;-83
2021/12/24 06:45:49;;;;;;;39.95;27.83;;;;;;;;;;6117987;23;20364;-83
2021/12/24 06:48:16;;;;;;;41.50;27.25;;;;;;;;;;6117382;23;20394;-84
2021/12/24 06:50:43;;;;;;;43.65;29.33;;;;;;;;;;6118034;23;20421;-83
2021/12/24 06:53:10;;;;;;;39.95;28.25;;;;;;;;;;6118322;23;20374;-85
2021/12/24 06:55:38;;;;;;;41.38;27.73;;;;;;;;;;6116319;23;20424;-82
2021/12/24 06:58:05;;;;;;;44.58;29.65;;;;;;;;;;6118917;23;20367;-83
2021/12/24 07:00:33;;;;;;;43.50;29.73;;;;;;;;;;6118461;23;20430;-83
2021/12/24 07:03:00;;;;;;;46.33;30.08;;;;;;;;;;6118990;23;20362;-82
2021/12/24 07:05:27;;;;;;;43.15;29.05;;;;;;;;;;6117328;23;20363;-83
2021/12/24 07:07:54;;;;;;;49.20;30.70;;;;;;;;;;6118419;23;20395;-83
2021/12/24 07:10:21;;;;;;;45.13;29.92;;;;;;;;;;6118110;23;20371;-83
2021/12/24 07:12:48;;;;;;;44.92;30.42;;;;;;;;;;6118505;23;20374;-83
2021/12/24 07:15:16;;;;;;;44.15;29.77;;;;;;;;;;6117655;23;20367;-83
2021/12/24 07:17:44;;;;;;;45.38;29.95;;;;;;;;;;6118954;23;20674;-83
2021/12/24 07:20:12;;;;;;;43.55;30.42;;;;;;;;;;6117941;23;20446;-83
2021/12/24 07:22:39;;;;;;;43.90;29.35;;;;;;;;;;6118147;23;20385;-83
2021/12/24 07:25:07;;;;;;;46.63;29.70;;;;;;;;;;6119087;23;20367;-83
2021/12/24 07:27:34;;;;;;;45.67;29.83;;;;;;;;;;6118099;23;20474;-83
2021/12/24 07:30:00;;;;;;;46.03;30.52;;;;;;;;;;6118057;23;20652;-83
2021/12/24 07:32:27;;;;;;;46.05;30.10;;;;;;;;;;6117933;23;20636;-83
2021/12/24 07:34:55;;;;;;;47.20;30.70;;;;;;;;;;6117946;23;20394;-83
2021/12/24 07:37:22;;;;;;;46.75;30.58;;;;;;;;;;6117721;23;20836;-83
2021/12/24 07:39:49;;;;;;;48.83;31.35;;;;;;;;;;6118445;23;20371;-83
2021/12/24 07:42:16;;;;;;;47.45;31.10;;;;;;;;;;6117664;23;20371;-83
2021/12/24 07:44:43;;;;;;;46.45;30.55;;;;;;;;;;6117797;23;20370;-83
2021/12/24 07:47:16;;;;;;;47.45;31.40;;;;;;;;;;6118151;23;20709;-87
2021/12/24 07:49:44;;;;;;;49.97;31.85;;;;;;;;;;6119424;23;20414;-87
2021/12/24 07:52:13;;;;;;;51.38;32.58;;;;;;;;;;6118633;23;20374;-87
2021/12/24 07:54:43;;;;;;;46.83;30.95;;;;;;;;;;6118905;23;20378;-86
2021/12/24 07:57:11;;;;;;;49.03;32.38;;;;;;;;;;6119574;23;20765;-86
2021/12/24 07:59:39;;;;;;;47.42;31.77;;;;;;;;;;6118513;23;20434;-87
2021/12/24 08:02:10;;;;;;;53.92;33.90;;;;;;;;;;6119278;23;20402;-87
2021/12/24 08:04:39;;;;;;;51.20;33.50;;;;;;;;;;6116562;23;20402;-87
2021/12/24 08:07:06;;;;;;;50.08;32.60;;;;;;;;;;6115009;23;20399;-87
2021/12/24 08:09:37;;;;;;;51.10;32.75;;;;;;;;;;6116684;23;20725;-87
2021/12/24 08:12:04;;;;;;;49.67;32.37;;;;;;;;;;6118799;23;20442;-88
2021/12/24 08:14:31;;;;;;;51.03;32.53;;;;;;;;;;6117787;23;20386;-88
2021/12/24 08:16:59;;;;;;;49.10;32.67;;;;;;;;;;6118631;23;20367;-86
2021/12/24 08:19:26;;;;;;;49.00;32.30;;;;;;;;;;6121956;23;20375;-88
2021/12/24 08:21:53;;;;;;;57.60;33.28;;;;;;;;;;6136924;23;20522;-87
2021/12/24 08:24:20;;;;;;;53.13;33.63;;;;;;;;;;6136472;23;20445;-89
2021/12/24 08:26:49;;;;;;;51.40;32.73;;;;;;;;;;6119905;23;20373;-88
2021/12/24 08:29:16;;;;;;;52.05;32.50;;;;;;;;;;6118170;23;20387;-89
2021/12/24 08:31:44;;;;;;;49.00;32.45;;;;;;;;;;6117404;23;20379;-89
2021/12/24 08:34:11;;;;;;;50.03;32.20;;;;;;;;;;6117919;23;20426;-89
2021/12/24 08:36:38;;;;;;;48.17;31.85;;;;;;;;;;6116944;23;20379;-89
2021/12/24 08:39:06;;;;;;;51.25;31.38;;;;;;;;;;6119552;23;20367;-86
2021/12/24 08:41:33;;;;;;;52.88;33.40;;;;;;;;;;6117799;23;21022;-87
2021/12/24 08:44:03;;;;;;;54.33;34.88;;;;;;;;;;6118684;23;20462;-89
2021/12/24 08:46:30;;;;;;;56.75;35.33;;;;;;;;;;6118227;23;20370;-87
2021/12/24 08:48:58;;;;;;;55.90;34.40;;;;;;;;;;6117493;23;20391;-86
2021/12/24 08:51:25;;;;;;;55.15;34.72;;;;;;;;;;6116703;23;20622;-86
2021/12/24 08:53:52;;;;;;;54.25;34.25;;;;;;;;;;6116680;23;20421;-86
2021/12/24 08:56:19;;;;;;;52.72;33.85;;;;;;;;;;6116490;23;20378;-87
2021/12/24 08:58:46;;;;;;;59.55;36.30;;;;;;;;;;6116659;23;20901;-87
2021/12/24 09:01:14;;;;;;;54.78;34.65;;;;;;;;;;6116879;23;20363;-86
2021/12/24 09:03:41;;;;;;;55.08;34.83;;;;;;;;;;6116727;23;20366;-86
2021/12/24 09:06:08;;;;;;;53.83;34.50;;;;;;;;;;6117654;23;20414;-87
2021/12/24 09:08:36;;;;;;;56.03;36.30;;;;;;;;;;6117114;23;20387;-86
2021/12/24 09:11:04;;;;;;;55.15;36.67;;;;;;;;;;6117615;23;20366;-87
2021/12/24 09:13:31;;;;;;;56.95;37.10;;;;;;;;;;6117921;23;20371;-86
2021/12/24 09:15:58;;;;;;;59.72;38.05;;;;;;;;;;6121591;23;20358;-87
2021/12/24 09:18:26;;;;;;;60.53;38.03;;;;;;;;;;6121209;23;20844;-87
2021/12/24 09:20:55;;;;;;;62.38;38.53;;;;;;;;;;6125637;23;20367;-87
2021/12/24 09:23:22;;;;;;;61.50;38.17;;;;;;;;;;6127141;23;20381;-87
2021/12/24 09:25:49;;;;;;;61.10;37.80;;;;;;;;;;6130125;23;20447;-86
2021/12/24 09:28:16;;;;;;;58.85;38.25;;;;;;;;;;6131034;23;20409;-86
2021/12/24 09:30:43;;;;;;;63.47;41.38;;;;;;;;;;6129054;23;20362;-86
2021/12/24 09:33:10;;;;;;;63.93;41.97;;;;;;;;;;6121358;23;20741;-87
2021/12/24 09:35:39;;;;;;;69.32;42.60;;;;;;;;;;6114835;23;20383;-86
2021/12/24 09:38:06;;;;;;;64.53;44.38;;;;;;;;;;6116438;23;20367;-88
2021/12/24 09:40:35;;;;;;;66.88;45.70;;;;;;;;;;6115236;23;20370;-88
2021/12/24 09:43:02;;;;;;;64.63;43.70;;;;;;;;;;6116124;23;20689;-87
2021/12/24 09:45:29;;;;;;;67.30;42.15;;;;;;;;;;6115118;23;20429;-88
2021/12/24 09:47:56;;;;;;;58.40;39.00;;;;;;;;;;6115026;23;20712;-87
2021/12/24 09:50:28;;;;;;;64.15;40.53;;;;;;;;;;6113839;23;20420;-88
2021/12/24 09:52:57;;;;;;;58.40;39.15;;;;;;;;;;6115967;23;20398;-88
2021/12/24 09:55:27;;;;;;;62.13;39.33;;;;;;;;;;6116369;23;20367;-87
2021/12/24 09:57:54;;;;;;;62.37;39.03;;;;;;;;;;6117096;23;20410;-87
2021/12/24 10:00:23;;;;;;;62.25;38.35;;;;;;;;;;6115294;23;20386;-87
2021/12/24 10:02:52;;;;;;;59.15;37.20;;;;;;;;;;6115756;23;20363;-87
2021/12/24 10:05:31;;;;;;;57.30;35.50;;;;;;;;;;6116110;23;20430;-87
2021/12/24 10:08:05;;;;;;;56.72;36.15;;;;;;;;;;6116909;23;20744;-87
2021/12/24 10:10:33;;;;;;;58.67;37.92;;;;;;;;;;6116846;23;20387;-85
2021/12/24 10:13:26;;;;;;;57.38;37.58;;;;;;;;;;6119599;23;20700;-86
2021/12/24 10:15:54;;;;;;;57.83;37.78;;;;;;;;;;6119045;23;20371;-86
2021/12/24 10:18:33;;;;;;;58.97;38.15;;;;;;;;;;6118289;23;20379;-87
2021/12/24 10:21:03;;;;;;;58.85;38.05;;;;;;;;;;6119020;23;20445;-86
2021/12/24 10:23:47;;;;;;;59.90;38.00;;;;;;;;;;6117548;23;20697;-87
2021/12/24 10:26:16;;;;;;;61.60;37.15;;;;;;;;;;6120884;23;20776;-86
2021/12/24 10:29:01;;;;;;;60.13;37.28;;;;;;;;;;6128780;23;21205;-87
2021/12/24 10:31:31;;;;;;;59.80;37.95;;;;;;;;;;6128432;23;20363;-85
2021/12/24 10:34:21;;;;;;;56.42;37.47;;;;;;;;;;6126067;23;20677;-85
2021/12/24 10:36:59;;;;;;;59.25;38.15;;;;;;;;;;6125974;23;20382;-86
2021/12/24 10:39:31;;;;;;;61.95;39.80;;;;;;;;;;6127842;23;20902;-87
2021/12/24 10:42:00;;;;;;;62.63;38.72;;;;;;;;;;6130085;23;20367;-86
2021/12/24 10:44:29;;;;;;;64.30;40.00;;;;;;;;;;6130827;23;20397;-85
2021/12/24 10:47:03;;;;;;;66.80;39.75;;;;;;;;;;6132812;23;20402;-85
2021/12/24 10:52:29;;;;;;;56.53;37.03;;;;;;;;;;6120185;23;20423;-87
2021/12/24 10:54:59;;;;;;;58.33;37.75;;;;;;;;;;6118297;23;20399;-87
2021/12/24 10:57:29;;;;;;;57.28;36.88;;;;;;;;;;6117755;23;20370;-87
2021/12/24 10:59:58;;;;;;;55.72;37.45;;;;;;;;;;6118983;23;20378;-87
2021/12/24 11:02:29;;;;;;;58.50;38.53;;;;;;;;;;6117429;23;20426;-87
2021/12/24 11:04:57;;;;;;;59.53;39.10;;;;;;;;;;6118065;23;20378;-87
2021/12/24 11:07:35;;;;;;;63.38;40.08;;;;;;;;;;6117261;23;20374;-87
2021/12/24 11:10:12;;;;;;;58.67;39.53;;;;;;;;;;6117913;23;20409;-86
2021/12/24 11:12:41;;;;;;;61.42;39.70;;;;;;;;;;6117961;23;20494;-86
2021/12/24 11:15:39;;;;;;;61.27;38.67;;;;;;;;;;6118810;23;20379;-86
2021/12/24 11:18:09;;;;;;;56.60;38.15;;;;;;;;;;6001319;23;20374;-87
2021/12/24 11:20:36;;;;;;;55.63;38.58;;;;;;;;;;6093801;23;20413;-87
2021/12/24 11:23:07;;;;;;;59.13;38.75;;;;;;;;;;6136171;23;20406;-87
2021/12/24 11:25:37;;;;;;;64.05;39.55;;;;;;;;;;6126712;23;20937;-87
2021/12/24 11:28:05;;;;;;;60.03;40.38;;;;;;;;;;6118449;23;20371;-87
2021/12/24 11:30:34;;;;;;;55.38;37.58;;;;;;;;;;6116864;23;20367;-87
2021/12/24 11:33:01;;;;;;;60.72;38.58;;;;;;;;;;6115843;23;20375;-87
2021/12/24 11:35:29;;;;;;;61.03;37.90;;;;;;;;;;6114778;23;20367;-88
2021/12/24 11:38:02;;;;;;;63.53;38.67;;;;;;;;;;6118078;23;20443;-89
2021/12/24 11:40:29;;;;;;;58.92;38.97;;;;;;;;;;6117740;23;20370;-89
2021/12/24 11:43:04;;;;;;;60.10;39.15;;;;;;;;;;6118168;23;20379;-88
2021/12/24 11:45:33;;;;;;;55.45;38.45;;;;;;;;;;6116113;23;20413;-88
2021/12/24 11:48:01;;;;;;;57.00;38.72;;;;;;;;;;6113308;23;20374;-87
2021/12/24 11:50:28;;;;;;;57.47;36.97;;;;;;;;;;6115099;23;20688;-89
2021/12/24 11:52:58;;;;;;;50.67;36.67;;;;;;;;;;6114141;23;20426;-89
2021/12/24 11:55:27;;;;;;;53.20;35.45;;;;;;;;;;6114725;23;20363;-89
2021/12/24 11:57:57;;;;;;;52.63;34.65;;;;;;;;;;6115219;23;20732;-89
2021/12/24 12:00:29;;;;;;;47.93;34.47;;;;;;;;;;6115095;23;20371;-89
2021/12/24 12:02:57;;;;;;;52.97;34.90;;;;;;;;;;6114796;23;20374;-89
2021/12/24 12:05:32;;;;;;;53.60;34.90;;;;;;;;;;6115819;23;20727;-88
2021/12/24 12:08:38;;;;;;;50.45;34.92;;;;;;;;;;6114825;23;20418;-88
2021/12/24 12:11:20;;;;;;;49.65;33.92;;;;;;;;;;5996142;23;20921;-87
2021/12/24 12:13:51;;;;;;;49.30;34.67;;;;;;;;;;5996205;23;20728;-88
2021/12/24 12:16:21;;;;;;;49.88;34.22;;;;;;;;;;6068015;23;20371;-88
2021/12/24 12:19:00;;;;;;;46.38;31.30;;;;;;;;;;6114700;23;20375;-89
2021/12/24 12:21:37;;;;;;;45.78;31.67;;;;;;;;;;6113287;23;20453;-86
2021/12/24 12:27:00;;;;;;;37.88;27.10;;;;;;;;;;6115861;23;20446;-87
2021/12/24 12:29:33;;;;;;;38.47;28.30;;;;;;;;;;6114633;23;20498;-88
2021/12/24 12:32:41;;;;;;;36.63;27.45;;;;;;;;;;6116609;23;20375;-87
2021/12/24 12:35:11;;;;;;;41.88;29.58;;;;;;;;;;6093334;23;20371;-87
2021/12/24 12:37:47;;;;;;;39.60;28.80;;;;;;;;;;6116033;23;20378;-89
2021/12/24 12:40:45;;;;;;;40.75;28.92;;;;;;;;;;6117263;23;20884;-88
2021/12/24 12:43:13;;;;;;;42.42;28.58;;;;;;;;;;6025149;23;20388;-86
2021/12/24 12:46:04;;;;;;;39.95;26.98;;;;;;;;;;6095890;23;20383;-87
2021/12/24 12:48:50;;;;;;;37.47;27.38;;;;;;;;;;6113887;23;20453;-87
2021/12/24 12:51:21;;;;;;;39.83;27.00;;;;;;;;;;6114878;23;20382;-84
2021/12/24 12:53:50;;;;;;;39.35;27.20;;;;;;;;;;6113480;23;20391;-87
2021/12/24 12:56:26;;;;;;;37.33;27.50;;;;;;;;;;6115635;23;20425;-87
2021/12/24 12:58:58;;;;;;;39.67;26.50;;;;;;;;;;6116319;23;20375;-86
2021/12/24 13:01:28;;;;;;;40.90;27.42;;;;;;;;;;6115944;23;20370;-88
2021/12/24 13:04:12;;;;;;;36.40;26.50;;;;;;;;;;6116300;23;20426;-87
2021/12/24 13:06:55;;;;;;;36.70;26.45;;;;;;;;;;6115130;23;20918;-87
2021/12/24 13:09:28;;;;;;;36.80;27.10;;;;;;;;;;6115342;23;20459;-88
2021/12/24 13:11:56;;;;;;;37.00;27.80;;;;;;;;;;6115029;23;20375;-86
2021/12/24 13:14:25;;;;;;;41.00;28.08;;;;;;;;;;6116280;23;20367;-86
2021/12/24 13:17:05;;;;;;;41.15;28.50;;;;;;;;;;6116049;23;20382;-89
2021/12/24 13:22:29;;;;;;;45.78;31.23;;;;;;;;;;6113974;23;20379;-87
2021/12/24 13:24:58;;;;;;;46.42;32.22;;;;;;;;;;6115922;23;20371;-90
2021/12/24 13:27:30;;;;;;;46.20;31.88;;;;;;;;;;6115678;23;20387;-87
2021/12/24 13:30:14;;;;;;;46.03;31.48;;;;;;;;;;6116042;23;20391;-87
2021/12/24 13:32:44;;;;;;;42.63;30.27;;;;;;;;;;6115892;23;20399;-87
2021/12/24 13:35:12;;;;;;;41.22;30.98;;;;;;;;;;6116003;23;20375;-87
2021/12/24 13:37:45;;;;;;;42.30;30.95;;;;;;;;;;6114543;23;20382;-87
2021/12/24 13:40:14;;;;;;;44.20;30.63;;;;;;;;;;6116447;23;20971;-86
2021/12/24 13:42:46;;;;;;;44.40;30.67;;;;;;;;;;6114417;23;20454;-88
2021/12/24 13:45:13;;;;;;;42.92;30.63;;;;;;;;;;6116614;23;20611;-88
2021/12/24 13:47:52;;;;;;;40.67;28.65;;;;;;;;;;6116787;23;20461;-89
2021/12/24 13:54:31;;;;;;;40.83;29.30;;;;;;;;;;6117499;23;20390;-87
2021/12/24 13:56:06;;;;;;;43.70;30.10;;;;;;;;;;6118120;23;20453;-88
2021/12/24 13:58:33;;;;;;;42.60;30.03;;;;;;;;;;6117282;23;20382;-88
2021/12/24 14:01:03;;;;;;;46.30;31.55;;;;;;;;;;6117975;23;20359;-88
2021/12/24 14:03:32;;;;;;;46.58;32.72;;;;;;;;;;6116175;23;20371;-88
2021/12/24 14:06:01;;;;;;;44.15;31.73;;;;;;;;;;6117975;23;20873;-87
2021/12/24 14:08:32;;;;;;;51.03;33.17;;;;;;;;;;6118226;23;20374;-88
2021/12/24 14:11:08;;;;;;;48.15;32.05;;;;;;;;;;6115811;23;20427;-86
2021/12/24 14:13:39;;;;;;;53.90;34.90;;;;;;;;;;6116107;23;20378;-86
2021/12/24 14:16:18;;;;;;;52.05;34.30;;;;;;;;;;6117595;23;20381;-86
2021/12/24 14:18:50;;;;;;;55.90;37.75;;;;;;;;;;6116028;23;20715;-86
2021/12/24 14:21:46;;;;;;;59.33;38.58;;;;;;;;;;6117657;23;20363;-86
2021/12/24 14:24:24;;;;;;;58.05;37.35;;;;;;;;;;6118266;23;20394;-77
2021/12/24 14:26:56;;;;;;;57.38;38.30;;;;;;;;;;6119053;23;20451;-87
2021/12/24 14:29:32;;;;;;;61.00;40.55;;;;;;;;;;6132387;23;20394;-87
2021/12/24 14:32:01;;;;;;;59.97;39.03;;;;;;;;;;6126455;23;20375;-87
2021/12/24 14:34:47;;;;;;;58.60;38.65;;;;;;;;;;6115380;23;20454;-86
2021/12/24 14:37:21;;;;;;;62.72;41.70;;;;;;;;;;6117413;23;20374;-88
2021/12/24 14:39:52;;;;;;;62.75;41.90;;;;;;;;;;6115650;23;20673;-88
2021/12/24 14:42:23;;;;;;;61.73;41.07;;;;;;;;;;6113636;23;20369;-85
2021/12/24 14:44:52;;;;;;;60.88;40.67;;;;;;;;;;6116069;23;20692;-88
2021/12/24 14:47:22;;;;;;;65.07;42.45;;;;;;;;;;6115707;23;20371;-87
2021/12/24 14:49:49;;;;;;;66.18;42.10;;;;;;;;;;6114622;23;20390;-87
2021/12/24 14:52:18;;;;;;;72.35;44.55;;;;;;;;;;6115369;23;20382;-87
2021/12/24 14:55:09;;;;;;;66.40;44.13;;;;;;;;;;6114786;23;20407;-86
2021/12/24 14:57:53;;;;;;;64.63;43.20;;;;;;;;;;6099241;23;20438;-87
2021/12/24 15:00:24;;;;;;;67.22;43.28;;;;;;;;;;6116188;23;20461;-87
2021/12/24 15:02:52;;;;;;;65.18;42.78;;;;;;;;;;6115416;23;20367;-89
2021/12/24 15:05:31;;;;;;;65.85;42.70;;;;;;;;;;6116335;23;20445;-86
2021/12/24 15:07:59;;;;;;;60.33;40.28;;;;;;;;;;6121878;23;20363;-89
2021/12/24 15:10:28;;;;;;;63.60;40.67;;;;;;;;;;6127579;23;20974;-86
2021/12/24 15:13:03;;;;;;;58.75;39.38;;;;;;;;;;6125548;23;20382;-85
2021/12/24 15:15:31;;;;;;;61.73;41.53;;;;;;;;;;6124609;23;20375;-87
2021/12/24 15:17:58;;;;;;;65.72;41.72;;;;;;;;;;6124601;23;20371;-88
2021/12/24 15:20:28;;;;;;;65.38;42.88;;;;;;;;;;6116173;23;20385;-87
2021/12/24 15:22:56;;;;;;;64.43;41.15;;;;;;;;;;6115183;23;20439;-87
2021/12/24 15:25:24;;;;;;;64.50;41.92;;;;;;;;;;6116357;23;20374;-88
2021/12/24 15:27:55;;;;;;;66.28;43.13;;;;;;;;;;6117311;23;20943;-88
2021/12/24 15:30:22;;;;;;;66.28;43.85;;;;;;;;;;6116470;23;20387;-88
2021/12/24 15:32:49;;;;;;;67.37;44.67;;;;;;;;;;6116033;23;20390;-86
2021/12/24 15:35:16;;;;;;;68.72;43.65;;;;;;;;;;6116725;23;20434;-87
2021/12/24 15:37:42;;;;;;;68.18;45.55;;;;;;;;;;6115363;23;20919;-87
2021/12/24 15:40:10;;;;;;;73.90;48.22;;;;;;;;;;6114752;23;20374;-85
2021/12/24 15:42:37;;;;;;;71.90;47.35;;;;;;;;;;6114388;23;20391;-86
2021/12/24 15:45:06;;;;;;;70.90;46.58;;;;;;;;;;6115312;23;20364;-77
2021/12/24 15:47:34;;;;;;;73.57;47.57;;;;;;;;;;6113432;23;20676;-87
2021/12/24 15:50:01;;;;;;;69.82;46.55;;;;;;;;;;6114398;23;20379;-87
2021/12/24 15:52:28;;;;;;;68.85;46.13;;;;;;;;;;6113668;23;20383;-85
2021/12/24 15:54:55;;;;;;;70.13;46.38;;;;;;;;;;6114938;23;20852;-86
2021/12/24 15:57:22;;;;;;;75.35;47.85;;;;;;;;;;6113435;23;20364;-85
2021/12/24 15:59:49;;;;;;;75.30;48.72;;;;;;;;;;6115440;23;21138;-86
2021/12/24 16:02:18;;;;;;;83.22;53.42;;;;;;;;;;6114458;23;20382;-85